Time;durP1;ratioP1;P1;durP2;ratioP2;P2;SDS_P1;SDS_P2;PMS_P1;PMS_P2;Temp;Humidity;BMP_temperature;BMP_pressure;BME280_temperature;BME280_humidity;BME280_pressure;Samples;Min_cycle;Max_cycle;Signal;HPM_P1;HPM_P2
2022/11/23 00:01:46;;;;;;;11.70;3.80;;;;;;;7.42;100.00;99552.50;5073249;28;20042;-34
2022/11/23 00:04:13;;;;;;;14.00;4.25;;;;;;;7.46;100.00;99561.69;5073289;28;20047;-34
2022/11/23 00:06:39;;;;;;;9.07;3.50;;;;;;;7.46;100.00;99559.00;5072958;28;20028;-35
2022/11/23 00:09:05;;;;;;;8.75;3.70;;;;;;;7.45;100.00;99554.69;5073688;28;20384;-34
2022/11/23 00:11:33;;;;;;;7.93;3.20;;;;;;;7.43;100.00;99550.63;5073113;28;20419;-34
2022/11/23 00:13:58;;;;;;;11.85;3.22;;;;;;;7.50;100.00;99564.72;5073238;28;20106;-34
2022/11/23 00:16:26;;;;;;;10.60;3.83;;;;;;;7.51;100.00;99560.16;5073322;28;20029;-35
2022/11/23 00:18:53;;;;;;;10.63;3.42;;;;;;;7.51;100.00;99570.91;5073289;28;20078;-34
2022/11/23 00:21:20;;;;;;;12.30;3.03;;;;;;;7.49;100.00;99569.28;5071694;28;20028;-34
2022/11/23 00:23:46;;;;;;;10.77;3.50;;;;;;;7.45;100.00;99567.31;5073316;28;20187;-34
2022/11/23 00:26:12;;;;;;;10.98;3.97;;;;;;;7.53;100.00;99572.31;5072731;28;20104;-35
2022/11/23 00:28:39;;;;;;;7.63;2.70;;;;;;;7.53;100.00;99575.00;5073263;28;20025;-34
2022/11/23 00:31:16;;;;;;;8.90;2.95;;;;;;;7.54;100.00;99570.44;5072984;28;20016;-35
2022/11/23 00:33:42;;;;;;;9.05;2.78;;;;;;;7.49;100.00;99571.16;5073704;28;20036;-35
2022/11/23 00:36:11;;;;;;;10.15;2.58;;;;;;;7.50;100.00;99572.78;5073440;28;20170;-34
2022/11/23 00:38:37;;;;;;;9.63;2.95;;;;;;;7.56;100.00;99587.94;5073000;28;20388;-34
2022/11/23 00:41:06;;;;;;;9.45;2.90;;;;;;;7.55;100.00;99582.81;5073578;28;20032;-34
2022/11/23 00:43:31;;;;;;;10.60;3.03;;;;;;;7.55;100.00;99588.19;5073388;28;20453;-34
2022/11/23 00:46:05;;;;;;;10.93;2.97;;;;;;;7.56;100.00;99585.25;5073218;28;20028;-34
2022/11/23 00:48:31;;;;;;;11.68;3.42;;;;;;;7.52;100.00;99591.41;5073253;28;20043;-34
2022/11/23 00:50:58;;;;;;;9.02;3.28;;;;;;;7.53;100.00;99587.63;5072948;28;20024;-34
2022/11/23 00:53:23;;;;;;;12.75;3.58;;;;;;;7.55;100.00;99593.59;5072425;28;20028;-34
2022/11/23 00:55:55;;;;;;;9.20;2.83;;;;;;;7.55;100.00;99588.19;5072939;28;20323;-34
2022/11/23 00:58:21;;;;;;;10.05;2.65;;;;;;;7.56;100.00;99589.81;5072393;28;20031;-34
2022/11/23 01:00:46;;;;;;;11.10;2.97;;;;;;;7.53;100.00;99579.56;5072600;28;20028;-34
2022/11/23 01:03:12;;;;;;;8.23;2.50;;;;;;;7.55;100.00;99589.00;5073185;28;20282;-35
2022/11/23 01:05:38;;;;;;;10.60;2.58;;;;;;;7.57;100.00;99592.28;5072567;28;20025;-34
2022/11/23 01:08:05;;;;;;;11.23;3.13;;;;;;;7.51;100.00;99584.34;5072918;28;20032;-35
2022/11/23 01:10:31;;;;;;;7.25;2.38;;;;;;;7.49;100.00;99587.28;5073364;28;20123;-35
2022/11/23 01:12:58;;;;;;;9.60;2.88;;;;;;;7.58;100.00;99593.09;5073273;28;20128;-34
2022/11/23 01:15:24;;;;;;;9.30;2.22;;;;;;;7.59;100.00;99600.94;5072648;28;20024;-34
2022/11/23 01:17:49;;;;;;;5.15;2.13;;;;;;;7.59;100.00;99598.25;5072738;28;20513;-35
2022/11/23 01:20:15;;;;;;;7.97;2.33;;;;;;;7.59;100.00;99597.44;5072349;28;20025;-34
2022/11/23 01:22:41;;;;;;;11.75;2.58;;;;;;;7.59;100.00;99597.44;5072696;28;20040;-35
2022/11/23 01:25:07;;;;;;;10.38;2.53;;;;;;;7.58;100.00;99602.00;5072878;28;20441;-35
2022/11/23 01:27:32;;;;;;;17.67;3.67;;;;;;;7.57;100.00;99602.25;5072479;28;20082;-35
2022/11/23 01:29:57;;;;;;;11.40;2.70;;;;;;;7.58;100.00;99603.88;5073093;28;20028;-34
2022/11/23 01:32:23;;;;;;;9.60;2.50;;;;;;;7.49;100.00;99596.19;5072434;28;20036;-35
2022/11/23 01:34:48;;;;;;;9.17;2.40;;;;;;;7.56;100.00;99605.97;5076205;28;20035;-35
2022/11/23 01:37:13;;;;;;;9.53;2.73;;;;;;;7.56;100.00;99612.16;5075969;28;20465;-34
2022/11/23 01:39:38;;;;;;;8.87;2.07;;;;;;;7.55;100.00;99607.84;5075819;28;20028;-34
2022/11/23 01:42:07;;;;;;;14.73;3.40;;;;;;;7.56;100.00;99620.22;5076275;28;20074;-34
2022/11/23 01:44:34;;;;;;;9.25;2.20;;;;;;;7.39;100.00;99590.63;5075728;28;20476;-35
2022/11/23 01:47:02;;;;;;;6.93;2.20;;;;;;;7.56;100.00;99622.09;5075658;28;20085;-34
2022/11/23 01:49:35;;;;;;;9.73;2.40;;;;;;;7.57;100.00;99623.75;5075748;28;20043;-34
2022/11/23 01:52:09;;;;;;;10.05;2.65;;;;;;;7.55;100.00;99623.16;5076421;28;20454;-35
2022/11/23 01:54:45;;;;;;;8.40;2.53;;;;;;;7.58;100.00;99628.91;5075573;28;20032;-35
2022/11/23 01:57:21;;;;;;;8.35;2.40;;;;;;;7.60;100.00;99628.66;5075878;28;20418;-35
2022/11/23 01:59:48;;;;;;;9.93;2.40;;;;;;;7.61;100.00;99623.03;5075188;28;20089;-35
2022/11/23 02:02:14;;;;;;;5.30;1.67;;;;;;;7.60;100.00;99623.25;5075196;28;20544;-35
2022/11/23 02:04:42;;;;;;;8.65;2.33;;;;;;;7.63;100.00;99629.00;5075762;28;20036;-35
2022/11/23 02:07:08;;;;;;;7.65;2.05;;;;;;;7.63;100.00;99628.19;5075792;28;20412;-35
2022/11/23 02:09:35;;;;;;;10.82;2.33;;;;;;;7.60;100.00;99632.16;5075337;28;20373;-35
2022/11/23 02:12:00;;;;;;;;;;;;;;;7.66;100.00;99641.13;5075688;28;20036;-35
2022/11/23 02:14:26;;;;;;;6.63;2.10;;;;;;;7.57;100.00;99627.28;5075536;28;19923;-35
2022/11/23 02:16:51;;;;;;;5.60;1.90;;;;;;;7.62;100.00;99640.81;5075310;28;20351;-35
2022/11/23 02:19:37;;;;;;;10.17;2.73;;;;;;;7.64;100.00;99638.69;5074402;28;20028;-35
2022/11/23 02:22:09;;;;;;;8.45;2.47;;;;;;;7.63;100.00;99636.25;5074869;28;20036;-35
2022/11/23 02:24:41;;;;;;;10.20;2.13;;;;;;;7.64;100.00;99645.94;5074742;28;20036;-35
2022/11/23 02:27:06;;;;;;;6.22;1.80;;;;;;;7.64;100.00;99635.19;5075824;28;20035;-35
2022/11/23 02:29:33;;;;;;;9.85;2.95;;;;;;;7.63;100.00;99630.88;5075448;28;20372;-35
2022/11/23 02:31:59;;;;;;;10.43;2.83;;;;;;;7.64;100.00;99635.19;5074853;28;20040;-35
2022/11/23 02:34:24;;;;;;;8.20;2.33;;;;;;;7.65;100.00;99642.19;5074864;28;20457;-35
2022/11/23 02:36:55;;;;;;;7.03;2.10;;;;;;;7.59;100.00;99633.22;5075241;28;20033;-35
2022/11/23 02:39:30;;;;;;;9.00;2.53;;;;;;;7.65;100.00;99643.00;5075437;28;20102;-35
2022/11/23 02:41:57;;;;;;;8.07;2.10;;;;;;;7.65;100.00;99643.00;5074710;28;20028;-35
2022/11/23 02:44:33;;;;;;;9.50;2.30;;;;;;;7.67;100.00;99651.66;5074203;28;20024;-35
2022/11/23 02:46:58;;;;;;;6.75;2.42;;;;;;;7.48;100.00;99621.44;5075000;28;20106;-35
2022/11/23 02:49:24;;;;;;;9.05;2.45;;;;;;;7.67;100.00;99650.84;5075375;28;20032;-35
2022/11/23 02:51:50;;;;;;;9.50;2.63;;;;;;;7.67;100.00;99648.97;5074451;28;20063;-35
2022/11/23 02:54:15;;;;;;;7.55;2.05;;;;;;;7.68;100.00;99647.09;5074551;28;20036;-35
2022/11/23 02:56:40;;;;;;;8.60;2.13;;;;;;;7.66;100.00;99650.03;5074567;28;20387;-35
2022/11/23 02:59:06;;;;;;;7.13;1.73;;;;;;;7.67;100.00;99642.78;5074062;28;20062;-35
2022/11/23 03:01:32;;;;;;;6.80;1.97;;;;;;;7.68;100.00;99647.09;5073970;28;20032;-35
2022/11/23 03:03:57;;;;;;;7.97;2.10;;;;;;;7.57;100.00;99624.59;5074490;28;20032;-35
2022/11/23 03:06:22;;;;;;;8.60;2.00;;;;;;;7.56;100.00;99630.19;5074201;28;20115;-35
2022/11/23 03:08:48;;;;;;;8.27;2.40;;;;;;;7.69;100.00;99651.41;5074154;28;20033;-35
2022/11/23 03:11:13;;;;;;;8.80;2.47;;;;;;;7.70;100.00;99648.47;5074670;28;20476;-35
2022/11/23 03:13:38;;;;;;;8.23;2.23;;;;;;;7.70;100.00;99644.97;5073997;28;20033;-35
2022/11/23 03:16:04;;;;;;;10.87;2.50;;;;;;;7.70;100.00;99648.47;5073955;28;20043;-35
2022/11/23 03:18:29;;;;;;;9.52;2.30;;;;;;;7.72;100.00;99657.16;5074444;28;20021;-35
2022/11/23 03:20:54;;;;;;;9.47;2.30;;;;;;;7.70;100.00;99647.66;5074296;28;20103;-35
2022/11/23 03:23:20;;;;;;;8.23;1.80;;;;;;;7.67;100.00;99642.78;5073695;28;20025;-35
2022/11/23 03:25:54;;;;;;;11.47;2.17;;;;;;;7.72;100.00;99662.53;5073676;28;20028;-35
2022/11/23 03:28:19;;;;;;;10.20;2.42;;;;;;;7.71;100.00;99654.66;5074533;28;20254;-35
2022/11/23 03:30:44;;;;;;;7.43;1.93;;;;;;;7.72;100.00;99656.34;5072747;28;20496;-35
2022/11/23 03:33:09;;;;;;;10.70;2.30;;;;;;;7.66;100.00;99657.28;5074033;28;20052;-35
2022/11/23 03:35:35;;;;;;;9.23;2.27;;;;;;;7.65;100.00;99645.69;5073709;28;20032;-35
2022/11/23 03:38:00;;;;;;;11.40;2.70;;;;;;;7.70;100.00;99659.25;5073933;28;20116;-35
2022/11/23 03:40:25;;;;;;;8.07;1.93;;;;;;;7.64;100.00;99643.25;5073522;28;20107;-35
2022/11/23 03:42:51;;;;;;;10.00;2.33;;;;;;;7.69;100.00;99657.63;5074343;28;20031;-35
2022/11/23 03:45:16;;;;;;;5.30;1.83;;;;;;;7.67;100.00;99654.38;5073559;28;20475;-35
2022/11/23 03:47:42;;;;;;;6.70;1.83;;;;;;;7.65;100.00;99655.66;5073823;28;20025;-35
2022/11/23 03:50:08;;;;;;;11.10;2.88;;;;;;;7.66;100.00;99659.97;5073471;28;20032;-35
2022/11/23 03:52:33;;;;;;;7.75;2.38;;;;;;;7.65;100.00;99661.03;5073884;28;20096;-35
2022/11/23 03:54:59;;;;;;;8.77;2.17;;;;;;;7.64;100.00;99662.91;5073409;28;20028;-35
2022/11/23 03:57:24;;;;;;;11.47;2.50;;;;;;;7.64;100.00;99662.09;5073387;28;20024;-35
2022/11/23 03:59:49;;;;;;;9.33;2.23;;;;;;;7.62;100.00;99662.34;5072930;28;20036;-35
2022/11/23 04:02:15;;;;;;;9.77;2.30;;;;;;;7.53;100.00;99644.94;5072731;28;20044;-35
2022/11/23 04:04:40;;;;;;;9.43;2.20;;;;;;;7.59;100.00;99654.75;5073258;28;20028;-35
2022/11/23 04:07:05;;;;;;;8.67;2.80;;;;;;;7.57;100.00;99656.88;5073117;28;20040;-35
2022/11/23 04:09:31;;;;;;;7.97;2.20;;;;;;;7.55;100.00;99661.66;5073285;28;20048;-35
2022/11/23 04:11:56;;;;;;;9.87;2.37;;;;;;;7.55;100.00;99667.03;5073576;28;20115;-35
2022/11/23 04:14:21;;;;;;;7.50;2.27;;;;;;;7.55;100.00;99663.53;5073644;28;20107;-35
2022/11/23 04:16:47;;;;;;;7.97;2.23;;;;;;;7.54;100.00;99669.97;5073200;28;20108;-35
2022/11/23 04:19:12;;;;;;;14.00;2.70;;;;;;;7.55;100.00;99667.03;5072958;28;20676;-35
2022/11/23 04:21:37;;;;;;;8.83;2.43;;;;;;;7.55;100.00;99660.84;5072671;28;20115;-35
2022/11/23 04:24:03;;;;;;;14.30;3.30;;;;;;;7.56;100.00;99663.28;5072949;28;20028;-35
2022/11/23 04:26:28;;;;;;;9.20;2.13;;;;;;;7.56;100.00;99663.28;5073205;28;20027;-35
2022/11/23 04:28:53;;;;;;;9.57;2.27;;;;;;;7.57;100.00;99664.94;5072110;28;20336;-35
2022/11/23 04:31:19;;;;;;;9.07;2.20;;;;;;;7.59;100.00;99664.69;5072881;28;20033;-35
2022/11/23 04:33:44;;;;;;;11.97;2.97;;;;;;;7.60;100.00;99664.44;5073232;28;20024;-35
2022/11/23 04:36:09;;;;;;;9.20;2.40;;;;;;;7.56;100.00;99659.78;5071527;28;20378;-35
2022/11/23 04:38:35;;;;;;;9.07;1.90;;;;;;;7.60;100.00;99669.00;5071392;28;20040;-35
2022/11/23 04:41:00;;;;;;;10.57;2.75;;;;;;;7.52;100.00;99650.56;5073464;28;20094;-35
2022/11/23 04:43:26;;;;;;;10.40;2.20;;;;;;;7.54;100.00;99648.44;5073030;28;20033;-34
2022/11/23 04:45:51;;;;;;;12.70;2.93;;;;;;;7.53;100.00;99652.19;5073033;28;20081;-35
2022/11/23 04:48:16;;;;;;;7.50;2.10;;;;;;;7.61;100.00;99668.78;5071281;28;20060;-35
2022/11/23 04:50:42;;;;;;;10.93;2.80;;;;;;;7.59;100.00;99673.56;5072773;28;20433;-35
2022/11/23 04:53:07;;;;;;;13.05;2.92;;;;;;;7.54;100.00;99660.03;5072618;28;20431;-35
2022/11/23 04:55:33;;;;;;;10.23;2.57;;;;;;;7.61;100.00;99667.94;5072734;28;20052;-35
2022/11/23 04:57:58;;;;;;;6.85;2.25;;;;;;;7.59;100.00;99668.19;5072422;28;20719;-35
2022/11/23 05:00:24;;;;;;;10.03;2.50;;;;;;;7.53;100.00;99652.19;5073216;28;20025;-35
2022/11/23 05:02:50;;;;;;;12.55;2.78;;;;;;;7.55;100.00;99658.97;5073091;28;20036;-35
2022/11/23 05:05:15;;;;;;;11.50;3.67;;;;;;;7.56;100.00;99662.47;5072914;28;20469;-35
2022/11/23 05:07:41;;;;;;;11.70;3.05;;;;;;;7.54;100.00;99656.53;5073665;28;20024;-35
2022/11/23 05:10:07;;;;;;;10.63;1.97;;;;;;;7.54;100.00;99653.81;5076375;28;20139;-35
2022/11/23 05:12:32;;;;;;;10.85;2.30;;;;;;;7.56;100.00;99654.38;5076144;28;20471;-35
2022/11/23 05:14:57;;;;;;;5.13;1.97;;;;;;;7.57;100.00;99651.47;5076108;28;20040;-35
2022/11/23 05:17:23;;;;;;;9.23;2.57;;;;;;;7.54;100.00;99646.56;5076315;28;20028;-35
2022/11/23 05:19:48;;;;;;;8.10;2.17;;;;;;;7.55;100.00;99650.88;5076062;28;20059;-35
2022/11/23 05:22:14;;;;;;;10.50;2.85;;;;;;;7.53;100.00;99660.28;5075715;28;20033;-35
2022/11/23 05:24:39;;;;;;;12.33;2.73;;;;;;;7.53;100.00;99654.88;5075858;28;20033;-35
2022/11/23 05:27:04;;;;;;;9.13;2.57;;;;;;;7.43;100.00;99647.44;5076571;28;20029;-35
2022/11/23 05:29:30;;;;;;;8.07;2.13;;;;;;;7.47;100.00;99652.09;5076194;28;20032;-35
2022/11/23 05:31:55;;;;;;;9.60;2.40;;;;;;;7.40;100.00;99643.34;5074519;28;20048;-35
2022/11/23 05:34:20;;;;;;;10.27;2.60;;;;;;;7.46;100.00;99658.50;5075729;28;20035;-35
2022/11/23 05:36:46;;;;;;;10.67;2.33;;;;;;;7.46;100.00;99665.78;5074810;28;20043;-35
2022/11/23 05:39:11;;;;;;;9.30;2.93;;;;;;;7.44;100.00;99666.03;5076303;28;20029;-35
2022/11/23 05:41:36;;;;;;;10.53;3.30;;;;;;;7.36;100.00;99652.94;5075079;28;20094;-35
2022/11/23 05:44:02;;;;;;;13.23;2.97;;;;;;;7.43;100.00;99660.88;5075829;28;20048;-35
2022/11/23 05:46:27;;;;;;;13.37;2.57;;;;;;;7.41;100.00;99652.22;5075778;28;20039;-35
2022/11/23 05:48:52;;;;;;;11.47;2.73;;;;;;;7.41;100.00;99658.41;5075968;28;20115;-35
2022/11/23 05:51:18;;;;;;;11.00;3.10;;;;;;;7.36;100.00;99661.00;5076085;28;20375;-34
2022/11/23 05:53:43;;;;;;;11.93;2.77;;;;;;;7.26;100.00;99636.59;5076166;28;20028;-35
2022/11/23 05:56:08;;;;;;;10.70;2.57;;;;;;;7.35;100.00;99658.56;5075653;28;20063;-34
2022/11/23 05:58:34;;;;;;;13.67;2.77;;;;;;;7.30;100.00;99653.09;5075226;28;20025;-34
2022/11/23 06:00:59;;;;;;;13.70;3.20;;;;;;;7.34;100.00;99665.81;5075218;28;20024;-35
2022/11/23 06:03:25;;;;;;;11.82;3.15;;;;;;;7.32;100.00;99665.25;5075406;28;20029;-35
2022/11/23 06:05:51;;;;;;;11.57;2.80;;;;;;;7.33;100.00;99668.75;5075306;28;20033;-35
2022/11/23 06:08:16;;;;;;;11.95;3.25;;;;;;;7.25;100.00;99658.38;5074550;28;20037;-35
2022/11/23 06:10:41;;;;;;;10.27;2.63;;;;;;;7.33;100.00;99666.06;5075831;28;20094;-35
2022/11/23 06:13:07;;;;;;;10.13;2.30;;;;;;;7.29;100.00;99664.91;5075591;28;20373;-35
2022/11/23 06:15:32;;;;;;;11.50;2.87;;;;;;;7.17;100.00;99644.25;5075241;28;20325;-35
2022/11/23 06:17:59;;;;;;;11.53;2.90;;;;;;;7.18;100.00;99653.94;5073736;28;20048;-35
2022/11/23 06:20:25;;;;;;;15.75;4.47;;;;;;;7.23;100.00;99664.00;5075648;28;20038;-35
2022/11/23 06:22:52;;;;;;;11.10;2.95;;;;;;;7.27;100.00;99670.53;5075433;28;20103;-34
2022/11/23 06:25:17;;;;;;;13.55;3.38;;;;;;;7.24;100.00;99671.00;5074770;28;20025;-35
2022/11/23 06:27:42;;;;;;;11.40;3.27;;;;;;;7.26;100.00;99668.06;5074508;28;20050;-34
2022/11/23 06:30:08;;;;;;;14.20;3.20;;;;;;;7.24;100.00;99665.63;5074745;28;20078;-35
2022/11/23 06:32:34;;;;;;;11.90;2.85;;;;;;;7.25;100.00;99672.63;5074831;28;20131;-35
2022/11/23 06:34:59;;;;;;;12.37;2.67;;;;;;;7.26;100.00;99668.88;5074919;28;20107;-35
2022/11/23 06:37:24;;;;;;;12.07;2.90;;;;;;;7.26;100.00;99671.56;5074870;28;20067;-35
2022/11/23 06:39:49;;;;;;;14.50;3.00;;;;;;;7.20;100.00;99670.63;5074628;28;20120;-35
2022/11/23 06:42:15;;;;;;;11.53;3.10;;;;;;;7.21;100.00;99668.75;5075037;28;20100;-35
2022/11/23 06:44:40;;;;;;;13.73;2.60;;;;;;;7.28;100.00;99674.84;5074874;28;20031;-34
2022/11/23 06:47:05;;;;;;;16.23;3.37;;;;;;;7.17;100.00;99660.38;5075128;28;20044;-34
2022/11/23 06:49:31;;;;;;;13.30;3.00;;;;;;;7.28;100.00;99676.72;5075083;28;20028;-35
2022/11/23 06:51:56;;;;;;;11.37;3.10;;;;;;;7.28;100.00;99685.59;5074462;28;20031;-34
2022/11/23 06:54:21;;;;;;;8.70;2.80;;;;;;;7.30;100.00;99686.16;5075193;28;20017;-35
2022/11/23 06:56:47;;;;;;;12.43;3.40;;;;;;;7.28;100.00;99693.66;5075024;28;20091;-35
2022/11/23 06:59:12;;;;;;;10.27;2.70;;;;;;;7.24;100.00;99679.06;5074825;28;20032;-35
2022/11/23 07:01:37;;;;;;;14.20;3.00;;;;;;;7.24;100.00;99687.13;5074239;28;20495;-35
2022/11/23 07:04:03;;;;;;;11.30;3.27;;;;;;;7.30;100.00;99696.94;5073653;28;20495;-35
2022/11/23 07:06:28;;;;;;;12.50;2.50;;;;;;;7.32;100.00;99710.13;5074545;28;20067;-35
2022/11/23 07:08:54;;;;;;;11.67;3.00;;;;;;;7.30;100.00;99717.63;5074082;28;20029;-35
2022/11/23 07:11:20;;;;;;;11.93;2.90;;;;;;;7.28;100.00;99715.19;5074928;28;20048;-35
2022/11/23 07:13:46;;;;;;;9.60;2.97;;;;;;;7.25;100.00;99717.53;5074329;28;20090;-35
2022/11/23 07:16:11;;;;;;;13.35;2.75;;;;;;;7.25;100.00;99710.25;5074163;28;20445;-35
2022/11/23 07:18:36;;;;;;;32.83;4.40;;;;;;;7.21;100.00;99719.84;5074050;28;20028;-35
2022/11/23 07:21:02;;;;;;;14.03;2.87;;;;;;;7.22;100.00;99727.72;5073645;28;20511;-35
2022/11/23 07:23:27;;;;;;;12.85;2.80;;;;;;;7.11;100.00;99712.38;5074064;28;20036;-35
2022/11/23 07:25:53;;;;;;;13.87;2.77;;;;;;;7.18;100.00;99737.28;5073804;28;20469;-35
2022/11/23 07:28:18;;;;;;;12.27;2.80;;;;;;;7.18;100.00;99736.47;5074168;28;20073;-35
2022/11/23 07:30:44;;;;;;;10.70;2.67;;;;;;;7.18;100.00;99737.28;5073081;28;20037;-35
2022/11/23 07:33:11;;;;;;;18.33;3.13;;;;;;;7.18;100.00;99737.28;5074094;28;20028;-35
2022/11/23 07:35:39;;;;;;;12.25;2.55;;;;;;;7.19;100.00;99738.09;5073553;28;20036;-35
2022/11/23 07:38:08;;;;;;;9.73;2.60;;;;;;;7.20;100.00;99740.56;5071969;28;20036;-34
2022/11/23 07:40:36;;;;;;;15.45;3.45;;;;;;;7.13;100.00;99734.50;5073040;28;20031;-35
2022/11/23 07:43:03;;;;;;;13.20;3.13;;;;;;;7.21;100.00;99746.75;5073867;28;20021;-35
2022/11/23 07:45:29;;;;;;;9.57;2.35;;;;;;;7.23;100.00;99752.72;5073860;28;20358;-35
2022/11/23 07:48:03;;;;;;;11.70;2.75;;;;;;;7.19;100.00;99754.25;5073864;28;20115;-35
2022/11/23 07:50:28;;;;;;;10.00;2.63;;;;;;;7.18;100.00;99747.22;5073381;28;20032;-35
2022/11/23 07:52:54;;;;;;;11.15;2.53;;;;;;;7.12;100.00;99759.72;5074032;28;20337;-35
2022/11/23 07:55:19;;;;;;;12.90;2.37;;;;;;;7.12;100.00;99754.34;5073459;28;20035;-35
2022/11/23 07:57:45;;;;;;;13.20;3.10;;;;;;;7.10;100.00;99769.09;5073996;28;20044;-35
2022/11/23 08:00:11;;;;;;;9.47;1.93;;;;;;;7.12;100.00;99775.03;5073032;28;20366;-35
2022/11/23 08:02:37;;;;;;;11.57;2.38;;;;;;;7.02;100.00;99759.50;5073674;28;20040;-35
2022/11/23 08:05:02;;;;;;;11.27;2.78;;;;;;;7.08;100.00;99768.50;5071947;28;20416;-34
2022/11/23 08:07:27;;;;;;;9.23;2.70;;;;;;;7.08;100.00;99769.31;5072276;28;20028;-34
2022/11/23 08:09:53;;;;;;;11.83;2.73;;;;;;;7.06;100.00;99762.53;5073030;28;20043;-34
2022/11/23 08:12:18;;;;;;;8.90;2.73;;;;;;;7.05;100.00;99767.09;5073207;28;20031;-34
2022/11/23 08:14:44;;;;;;;10.77;2.23;;;;;;;7.13;100.00;99776.69;5072699;28;20271;-34
2022/11/23 08:17:09;;;;;;;13.00;2.47;;;;;;;7.13;100.00;99769.44;5073239;28;20020;-35
2022/11/23 08:19:34;;;;;;;12.87;2.93;;;;;;;7.07;100.00;99767.66;5072746;28;20060;-35
2022/11/23 08:22:00;;;;;;;10.90;3.47;;;;;;;7.16;100.00;99774.34;5073011;28;20064;-35
2022/11/23 08:24:25;;;;;;;19.53;3.17;;;;;;;7.11;100.00;99768.03;5055579;28;20726;-34
2022/11/23 08:26:50;;;;;;;16.23;3.77;;;;;;;7.17;100.00;99772.47;5073329;28;20528;-34
2022/11/23 08:29:16;;;;;;;12.90;3.43;;;;;;;7.12;100.00;99772.34;5073344;28;20534;-35
2022/11/23 08:31:41;;;;;;;9.80;1.93;;;;;;;7.20;100.00;99769.31;5072949;28;20489;-35
2022/11/23 08:34:07;;;;;;;9.60;2.42;;;;;;;7.20;100.00;99772.81;5071591;28;20043;-34
2022/11/23 08:36:32;;;;;;;10.00;2.80;;;;;;;7.20;100.00;99769.31;5072698;28;20104;-34
2022/11/23 08:38:57;;;;;;;14.63;3.10;;;;;;;7.26;100.00;99779.13;5073043;28;20020;-35
2022/11/23 08:41:23;;;;;;;12.63;2.50;;;;;;;7.31;100.00;99784.59;5072519;28;20469;-35
2022/11/23 08:43:49;;;;;;;10.40;3.37;;;;;;;7.33;100.00;99779.84;5075612;28;20024;-35
2022/11/23 08:46:16;;;;;;;9.00;2.20;;;;;;;7.38;100.00;99787.19;5076912;28;20029;-35
2022/11/23 08:48:41;;;;;;;8.25;2.05;;;;;;;7.42;100.00;99785.69;5076854;28;20384;-34
2022/11/23 08:51:07;;;;;;;10.20;2.72;;;;;;;7.45;100.00;99787.88;5076461;28;20033;-35
2022/11/23 08:53:32;;;;;;;8.85;2.42;;;;;;;7.48;100.00;99780.16;5076850;28;20115;-35
2022/11/23 08:56:03;;;;;;;14.00;3.27;;;;;;;7.51;100.00;99769.97;5077040;28;20461;-35
2022/11/23 08:58:29;;;;;;;10.40;3.20;;;;;;;7.54;100.00;99769.50;5075635;28;20281;-35
2022/11/23 09:00:54;;;;;;;12.77;2.50;;;;;;;7.57;100.00;99771.72;5076902;28;20032;-34
2022/11/23 09:03:19;;;;;;;11.97;2.63;;;;;;;7.61;100.00;99767.50;5077096;28;20154;-35
2022/11/23 09:05:45;;;;;;;11.57;3.03;;;;;;;7.62;100.00;99763.75;5076690;28;20078;-35
2022/11/23 09:08:10;;;;;;;10.87;3.40;;;;;;;7.66;100.00;99770.28;5077259;28;20021;-35
2022/11/23 09:10:36;;;;;;;8.53;2.00;;;;;;;7.71;100.00;99767.69;5076822;28;20059;-35
2022/11/23 09:13:02;;;;;;;10.35;2.47;;;;;;;7.67;100.00;99767.38;5077195;28;20350;-35
2022/11/23 09:15:28;;;;;;;8.30;2.25;;;;;;;7.77;100.00;99780.22;5076243;28;20063;-35
2022/11/23 09:17:53;;;;;;;10.63;2.65;;;;;;;7.73;100.00;99774.47;5077302;28;20067;-35
2022/11/23 09:20:18;;;;;;;12.73;2.40;;;;;;;7.74;100.00;99767.22;5077119;28;20101;-35
2022/11/23 09:22:49;;;;;;;8.73;2.27;;;;;;;7.75;100.00;99761.59;5077032;28;20124;-34
2022/11/23 09:25:15;;;;;;;13.30;2.75;;;;;;;7.74;100.00;99743.81;5076665;28;20078;-35
2022/11/23 09:27:41;;;;;;;11.15;2.80;;;;;;;7.87;100.00;99752.69;5076583;28;20029;-35
2022/11/23 09:30:07;;;;;;;11.83;2.80;;;;;;;7.92;100.00;99761.69;5076053;28;20488;-35
2022/11/23 09:32:32;;;;;;;13.02;2.03;;;;;;;7.95;100.00;99754.97;5076223;28;20071;-35
2022/11/23 09:34:57;;;;;;;9.43;2.57;;;;;;;7.98;100.00;99741.88;5075947;28;20071;-35
2022/11/23 09:37:23;;;;;;;11.20;2.63;;;;;;;8.04;100.00;99755.41;5076170;28;20056;-35
2022/11/23 09:39:48;;;;;;;10.17;2.40;;;;;;;7.98;100.00;99733.78;5076017;28;20028;-35
2022/11/23 09:42:16;;;;;;;9.47;2.20;;;;;;;8.11;100.00;99742.66;5076849;28;20025;-35
2022/11/23 09:44:54;;;;;;;13.55;2.75;;;;;;;8.10;100.00;99739.13;5076195;28;20031;-34
2022/11/23 09:47:34;;;;;;;11.43;2.20;;;;;;;8.14;100.00;99742.13;5076462;28;20040;-35
2022/11/23 09:50:13;;;;;;;13.55;2.83;;;;;;;8.21;100.00;99735.56;5076333;28;20029;-35
2022/11/23 09:52:44;;;;;;;8.38;2.05;;;;;;;8.28;100.00;99740.78;5076676;28;20358;-35
2022/11/23 09:55:18;;;;;;;8.80;2.15;;;;;;;8.25;98.22;99725.13;5075793;28;20066;-34
2022/11/23 09:57:47;;;;;;;8.98;2.42;;;;;;;8.16;98.57;99716.63;5076230;28;20089;-35
2022/11/23 10:00:21;;;;;;;7.88;2.00;;;;;;;8.22;98.16;99722.91;5075154;28;20043;-35
2022/11/23 10:02:47;;;;;;;11.68;2.90;;;;;;;8.25;98.44;99719.75;5074867;28;20043;-34
2022/11/23 10:05:27;;;;;;;11.68;2.13;;;;;;;8.30;98.84;99714.44;5076173;28;20020;-35
2022/11/23 10:07:55;;;;;;;8.52;2.38;;;;;;;8.29;97.23;99711.97;5076374;28;20349;-35
2022/11/23 10:11:04;;;;;;;9.73;2.53;;;;;;;8.32;97.53;99712.31;5075494;28;20049;-34
2022/11/23 10:13:56;;;;;;;6.72;2.33;;;;;;;8.40;98.71;99700.34;5032904;28;20052;-35
2022/11/23 10:16:32;;;;;;;7.97;2.17;;;;;;;8.39;97.12;99694.13;5033683;28;20049;-35
2022/11/23 10:19:42;;;;;;;7.70;2.00;;;;;;;8.44;96.94;99686.16;5033745;28;20489;-35
2022/11/23 10:22:28;;;;;;;8.77;2.47;;;;;;;8.34;96.63;99675.16;4955275;29;20045;-35
2022/11/23 10:24:53;;;;;;;9.80;2.10;;;;;;;8.48;96.87;99687.28;4954660;29;20208;-35
2022/11/23 10:27:22;;;;;;;10.25;2.67;;;;;;;8.48;96.29;99679.19;4955044;29;20072;-35
2022/11/23 10:29:48;;;;;;;10.55;2.55;;;;;;;8.54;95.86;99680.13;4954693;29;20150;-35
2022/11/23 10:32:44;;;;;;;7.97;2.08;;;;;;;8.62;95.75;99697.72;4954917;29;20043;-35
2022/11/23 10:35:16;;;;;;;7.68;1.92;;;;;;;8.64;95.20;99696.44;4955288;29;20376;-35
2022/11/23 10:37:42;;;;;;;7.03;2.10;;;;;;;8.68;96.06;99684.06;4955176;29;20131;-36
2022/11/23 10:40:22;;;;;;;7.22;1.80;;;;;;;8.79;96.34;99693.16;4954727;29;20114;-36
2022/11/23 10:42:53;;;;;;;8.35;1.90;;;;;;;8.80;94.40;99697.47;4954524;29;20039;-36
2022/11/23 10:45:24;;;;;;;8.60;2.10;;;;;;;8.77;94.21;99674.50;4954605;29;20044;-36
2022/11/23 10:47:50;;;;;;;8.88;1.73;;;;;;;8.90;94.28;99688.72;4954583;29;20043;-36
2022/11/23 10:50:51;;;;;;;10.38;1.90;;;;;;;8.95;94.25;99688.78;4985232;28;20046;-35
2022/11/23 10:53:19;;;;;;;11.40;2.15;;;;;;;8.84;93.23;99663.56;4954801;29;20047;-35
2022/11/23 10:55:54;;;;;;;8.27;2.17;;;;;;;8.99;94.38;99674.56;4954731;29;20035;-35
2022/11/23 10:58:26;;;;;;;7.80;1.90;;;;;;;9.01;93.67;99680.50;4977023;28;20061;-35
2022/11/23 11:01:21;;;;;;;7.38;1.60;;;;;;;9.01;92.65;99675.13;5012848;28;20609;-35
2022/11/23 11:03:47;;;;;;;7.60;2.00;;;;;;;9.00;93.04;99673.50;5012708;28;20033;-35
2022/11/23 11:06:31;;;;;;;5.43;1.40;;;;;;;8.82;93.94;99652.19;5011557;28;20033;-34
2022/11/23 11:08:59;;;;;;;7.28;2.08;;;;;;;8.90;93.27;99662.56;5012819;28;20034;-35
2022/11/23 11:11:29;;;;;;;6.85;1.55;;;;;;;8.90;93.81;99659.06;5012025;28;20490;-35
2022/11/23 11:14:06;;;;;;;9.82;2.30;;;;;;;8.95;94.34;99656.44;4996278;28;20410;-35
2022/11/23 11:16:35;;;;;;;8.38;1.70;;;;;;;8.92;94.25;99633.47;5012333;28;20501;-35
2022/11/23 11:19:34;;;;;;;7.40;1.60;;;;;;;9.14;94.66;99646.97;5012681;28;20083;-35
2022/11/23 11:22:03;;;;;;;9.32;2.20;;;;;;;9.24;92.65;99636.31;4954159;29;20043;-35
2022/11/23 11:24:36;;;;;;;8.15;2.10;;;;;;;9.27;93.05;99645.78;4954563;29;20409;-35
2022/11/23 11:27:12;;;;;;;8.45;1.88;;;;;;;9.21;92.29;99647.59;4977988;28;20108;-35
2022/11/23 11:29:43;;;;;;;7.32;2.10;;;;;;;9.19;92.75;99647.03;5012390;28;20375;-35
2022/11/23 11:32:22;;;;;;;8.90;2.00;;;;;;;9.21;93.09;99646.78;5012073;28;20041;-35
2022/11/23 11:35:30;;;;;;;8.68;1.98;;;;;;;9.31;93.26;99638.81;5011983;28;20034;-35